Terminal Aerodrome Forecast
Issued by NWS

Home | Current Version | Previous Version | Text Only | Print | Product List | Glossary On
Versions: 1 2 3 4 5 6 7 8 9 10 11 12 13 14
482
FTUS46 KMTR 200204 AAA
TAFMRY
TAF AMD
KMRY 200204Z 2002/2024 24011G20KT P6SM BKN018
     FM200400 21005KT P6SM BKN020
     FM200900 VRB03KT P6SM OVC012
     FM201700 30005KT P6SM BKN020
     FM201900 29007KT P6SM SCT020
     FM202100 28011KT P6SM FEW035=

USA.gov is the U.S. government's official web portal to all federal, state and local government web resources and services.